Time;durP1;ratioP1;P1;durP2;ratioP2;P2;SDS_P1;SDS_P2;PMS_P1;PMS_P2;Temp;Humidity;BMP_temperature;BMP_pressure;BME280_temperature;BME280_humidity;BME280_pressure;Samples;Min_cycle;Max_cycle;Signal;HPM_P1;HPM_P2
2022/12/12 00:00:08;;;;;;;;;52.50;41.25;;;;;2.32;67.18;100603.88;5074894;27;45409;-76
2022/12/12 00:02:37;;;;;;;;;53.50;42.75;;;;;2.12;67.60;100558.78;5074471;27;45555;-76
2022/12/12 00:05:02;;;;;;;;;44.25;31.75;;;;;2.26;67.20;100603.16;5073106;28;45474;-76
2022/12/12 00:07:28;;;;;;;;;44.50;40.50;;;;;2.23;67.29;100593.59;5074464;27;45459;-76
2022/12/12 00:09:53;;;;;;;;;51.25;39.00;;;;;2.15;67.80;100571.88;5074531;27;45323;-75
2022/12/12 00:12:18;;;;;;;;;46.25;42.00;;;;;2.39;67.57;100603.69;5074597;27;45877;-76
2022/12/12 00:14:44;;;;;;;;;46.50;39.50;;;;;2.47;67.78;100599.94;5074225;27;45246;-76
2022/12/12 00:17:09;;;;;;;;;40.50;39.25;;;;;2.50;66.72;100589.31;5073984;27;45361;-75
2022/12/12 00:19:34;;;;;;;;;39.50;34.25;;;;;2.49;66.79;100600.75;5074626;28;45383;-76
2022/12/12 00:22:00;;;;;;;;;35.25;26.75;;;;;2.59;66.99;100609.28;5074028;28;45530;-76
2022/12/12 00:24:25;;;;;;;;;46.50;40.00;;;;;2.56;66.13;100614.59;5075680;28;46290;-76
2022/12/12 00:26:50;;;;;;;;;47.50;40.00;;;;;2.68;66.27;100616.88;5077916;28;45350;-76
2022/12/12 00:29:16;;;;;;;;;47.75;37.00;;;;;2.74;65.82;100609.72;5076665;28;45514;-76
2022/12/12 00:31:41;;;;;;;;;47.75;37.00;;;;;2.79;65.85;100613.94;5078172;27;45529;-76
2022/12/12 00:34:06;;;;;;;;;49.50;37.75;;;;;2.84;66.67;100613.81;5078009;27;46003;-76
2022/12/12 00:36:32;;;;;;;;;45.50;39.25;;;;;2.82;65.25;100618.25;5078338;27;45448;-76
2022/12/12 00:38:58;;;;;;;;;45.75;39.00;;;;;2.72;66.49;100622.09;5078385;27;45352;-75
2022/12/12 00:41:24;;;;;;;;;44.50;37.75;;;;;2.66;65.92;100618.72;5078560;28;45369;-76
2022/12/12 00:43:50;;;;;;;;;34.00;29.50;;;;;2.62;65.94;100624.97;5077537;27;45366;-76
2022/12/12 00:46:21;;;;;;;;;41.50;38.75;;;;;2.61;66.87;100622.41;5077438;27;45381;-77
2022/12/12 00:48:47;;;;;;;;;36.00;36.00;;;;;2.62;66.19;100626.72;5077522;27;45470;-77
2022/12/12 00:51:17;;;;;;;;;42.25;40.25;;;;;2.67;66.01;100628.34;5076793;27;45586;-77
2022/12/12 00:53:42;;;;;;;;;43.00;35.00;;;;;2.76;65.85;100627.22;5079125;27;46229;-76
2022/12/12 00:56:08;;;;;;;;;35.25;30.50;;;;;2.49;66.70;100570.94;5077416;28;45338;-76
2022/12/12 00:58:33;;;;;;;;;35.75;29.50;;;;;2.85;66.68;100629.59;5077151;28;45578;-76
2022/12/12 01:01:05;;;;;;;;;34.50;33.00;;;;;2.75;65.55;100611.47;5077259;27;45355;-76
2022/12/12 01:03:35;;;;;;;;;35.25;32.00;;;;;2.62;65.54;100585.47;5077060;28;45392;-76
2022/12/12 01:06:00;;;;;;;;;36.50;33.00;;;;;2.94;66.10;100622.31;5076781;28;45421;-75
2022/12/12 01:08:26;;;;;;;;;40.00;35.25;;;;;2.82;65.66;100594.53;5076438;27;45347;-76
2022/12/12 01:10:52;;;;;;;;;32.25;28.25;;;;;2.74;65.80;100580.75;5088535;27;45365;-76
2022/12/12 01:13:17;;;;;;;;;38.00;33.25;;;;;3.05;66.47;100614.09;5056746;28;46962;-76
2022/12/12 01:15:43;;;;;;;;;34.00;30.25;;;;;3.05;66.10;100614.09;5075630;28;45322;-75
2022/12/12 01:18:08;;;;;;;;;46.25;40.00;;;;;2.98;65.51;100622.19;5077270;27;45484;-75
2022/12/12 01:20:33;;;;;;;;;42.75;38.75;;;;;2.94;65.84;100620.56;5067932;28;47095;-76
2022/12/12 01:22:59;;;;;;;;;46.75;38.75;;;;;2.92;66.54;100617.09;5075845;28;45452;-76
2022/12/12 01:25:24;;;;;;;;;45.25;34.50;;;;;2.83;65.96;100620.00;5077214;27;45396;-76
2022/12/12 01:27:50;;;;;;;;;37.75;30.50;;;;;2.69;66.26;100587.00;5076782;28;45511;-76
2022/12/12 01:30:18;;;;;;;;;37.00;32.75;;;;;2.93;66.19;100615.31;5077026;27;45455;-76
2022/12/12 01:32:44;;;;;;;;;34.25;29.00;;;;;2.95;66.57;100618.78;5076226;27;46080;-77
2022/12/12 01:35:10;;;;;;;;;30.25;25.50;;;;;3.00;66.57;100625.63;5076436;27;45526;-75
2022/12/12 01:37:38;;;;;;;;;31.25;28.25;;;;;2.98;66.53;100635.38;5076522;27;45345;-75
2022/12/12 01:40:07;;;;;;;;;31.25;30.25;;;;;2.60;66.51;100587.28;5076809;27;45421;-75
2022/12/12 01:42:33;;;;;;;;;33.00;31.25;;;;;2.84;67.12;100632.28;5076721;28;46292;-76
2022/12/12 01:44:59;;;;;;;;;28.25;23.00;;;;;2.27;66.96;100537.31;5076593;27;45294;-76
2022/12/12 01:47:25;;;;;;;;;35.75;29.25;;;;;2.85;66.48;100624.31;5076596;27;45351;-76
2022/12/12 01:50:07;;;;;;;;;35.75;31.50;;;;;2.67;66.12;100580.06;5076136;27;45428;-75
2022/12/12 01:52:40;;;;;;;;;36.25;32.00;;;;;2.94;66.55;100611.78;5076361;27;46366;-76
2022/12/12 01:55:09;;;;;;;;;32.75;28.00;;;;;2.99;66.41;100626.53;5076491;27;45442;-76
2022/12/12 01:57:43;;;;;;;;;35.25;29.25;;;;;3.00;67.08;100630.06;5076439;27;45301;-76
2022/12/12 02:00:10;;;;;;;;;32.25;26.75;;;;;3.02;66.50;100634.38;5076503;27;45376;-76
2022/12/12 02:02:39;;;;;;;;;36.25;33.00;;;;;2.90;66.13;100595.19;5075876;28;45981;-76
2022/12/12 02:05:15;;;;;;;;;39.50;32.50;;;;;2.94;66.07;100622.31;5076172;27;45403;-75
2022/12/12 02:07:41;;;;;;;;;30.75;29.25;;;;;2.93;66.02;100624.09;5075105;28;45359;-76
2022/12/12 02:10:07;;;;;;;;;32.75;27.00;;;;;2.93;66.71;100625.84;5076153;28;45344;-76
2022/12/12 02:12:32;;;;;;;;;34.50;30.25;;;;;2.95;66.66;100629.31;5074705;28;47975;-76
2022/12/12 02:14:58;;;;;;;;;36.25;33.25;;;;;3.02;67.33;100629.09;5076074;27;45257;-76
2022/12/12 02:18:07;;;;;;;;;30.75;28.75;;;;;3.03;66.36;100617.63;5074605;28;45468;-76
2022/12/12 02:20:55;;;;;;;;;28.25;24.75;;;;;3.11;66.88;100624.47;5076032;27;45315;-76
2022/12/12 02:23:57;;;;;;;;;27.75;25.75;;;;;3.20;66.85;100625.03;5075810;28;45431;-76
2022/12/12 02:26:25;;;;;;;;;41.75;30.50;;;;;3.25;66.15;100630.16;5075693;28;45436;-76
2022/12/12 02:29:08;;;;;;;;;34.75;28.50;;;;;3.23;65.90;100624.09;5076210;27;45345;-76
2022/12/12 02:31:42;;;;;;;;;40.00;31.75;;;;;3.23;66.16;100633.78;5075745;28;45342;-76
2022/12/12 02:34:41;;;;;;;;;27.50;24.50;;;;;3.27;66.07;100636.25;5075837;27;46394;-76
2022/12/12 02:37:28;;;;;;;;;34.25;28.50;;;;;3.22;65.54;100635.53;5075634;27;45400;-77
2022/12/12 02:40:08;;;;;;;;;23.50;22.25;;;;;3.16;65.35;100633.09;5075807;28;45635;-77
2022/12/12 02:42:43;;;;;;;;;36.75;27.25;;;;;3.07;66.11;100638.63;5074566;28;46100;-77
2022/12/12 02:45:32;;;;;;;;;27.75;25.50;;;;;2.80;65.54;100596.38;5073993;28;47206;-77
2022/12/12 02:48:05;;;;;;;;;32.00;27.25;;;;;2.55;66.58;100549.69;5074218;27;45326;-77
2022/12/12 02:50:33;;;;;;;;;38.00;29.75;;;;;3.16;66.23;100635.72;5075583;27;45632;-78
2022/12/12 02:52:59;;;;;;;;;22.50;15.00;;;;;3.25;66.06;100632.78;5075662;27;45431;-77
2022/12/12 02:55:24;;;;;;;;;28.25;26.75;;;;;3.24;65.78;100628.44;5075558;27;46155;-78
2022/12/12 02:57:53;;;;;;;;;32.75;27.00;;;;;3.22;65.21;100618.84;5075469;27;45458;-78
2022/12/12 03:00:20;;;;;;;;;29.25;22.00;;;;;3.29;65.74;100623.88;5073750;28;45348;-78
2022/12/12 03:09:16;;;;;;;;;35.50;30.75;;;;;3.21;65.09;100620.59;5074980;28;45512;-77
2022/12/12 03:12:04;;;;;;;;;29.25;26.50;;;;;3.14;65.22;100625.22;5075273;27;45537;-77
2022/12/12 03:14:49;;;;;;;;;28.00;27.25;;;;;3.18;65.43;100621.56;5073696;28;45326;-77
2022/12/12 03:17:41;;;;;;;;;35.75;27.25;;;;;3.12;65.34;100626.19;5075028;28;46146;-78
2022/12/12 03:20:17;;;;;;;;;26.50;21.50;;;;;2.87;65.63;100576.84;5072682;28;45333;-77
2022/12/12 03:22:59;;;;;;;;;31.50;27.50;;;;;2.59;65.05;100527.63;5084647;27;45371;-77
2022/12/12 03:25:35;;;;;;;;;25.25;24.75;;;;;3.13;64.98;100620.88;5075415;27;45330;-77
2022/12/12 03:28:12;;;;;;;;;29.25;24.75;;;;;3.21;64.96;100625.88;5075173;27;45921;-77
2022/12/12 03:30:43;;;;;;;;;33.00;27.00;;;;;2.88;64.45;100559.28;5074552;28;45448;-78
2022/12/12 03:33:14;;;;;;;;;27.50;27.50;;;;;3.10;65.31;100618.31;5075154;27;45451;-77
2022/12/12 03:35:52;;;;;;;;;29.50;25.00;;;;;3.14;65.21;100624.34;5075976;27;45575;-77
2022/12/12 03:38:23;;;;;;;;;34.25;30.00;;;;;2.91;64.74;100583.75;5074774;27;45467;-77
2022/12/12 03:40:55;;;;;;;;;30.25;27.50;;;;;3.09;64.84;100627.16;5074664;28;45413;-78
2022/12/12 03:43:27;;;;;;;;;28.25;25.50;;;;;2.77;64.39;100547.28;5074885;27;45358;-78
2022/12/12 03:46:10;;;;;;;;;31.50;29.00;;;;;3.30;65.35;100624.75;5073562;28;45385;-78
2022/12/12 03:48:42;;;;;;;;;36.00;27.25;;;;;2.87;64.85;100561.03;5074950;27;45396;-78
2022/12/12 03:51:15;;;;;;;;;32.00;25.50;;;;;3.22;65.12;100622.34;5074480;27;45445;-78
2022/12/12 03:54:05;;;;;;;;;31.50;26.50;;;;;3.20;65.03;100626.81;5074948;27;45596;-78
2022/12/12 03:56:40;;;;;;;;;36.75;31.75;;;;;3.25;65.10;100640.69;5073526;28;45542;-77
2022/12/12 03:59:24;;;;;;;;;29.25;28.25;;;;;3.26;64.34;100623.97;5075529;28;45890;-78
2022/12/12 04:02:02;;;;;;;;;30.75;23.50;;;;;2.56;64.15;100508.41;5077084;28;46191;-79
2022/12/12 04:05:04;;;;;;;;;37.00;29.50;;;;;3.29;65.21;100642.31;5077552;27;45424;-78
2022/12/12 04:07:38;;;;;;;;;34.25;29.50;;;;;3.31;64.49;100637.88;5078141;28;45298;-78
2022/12/12 04:13:04;;;;;;;;;27.50;25.75;;;;;3.40;64.68;100651.69;5077675;28;45417;-77
2022/12/12 04:15:45;;;;;;;;;33.50;27.25;;;;;3.25;64.71;100630.16;5076477;28;45421;-78
2022/12/12 04:18:45;;;;;;;;;29.00;26.25;;;;;3.39;64.56;100660.50;5077976;27;45315;-78
2022/12/12 04:24:28;;;;;;;;;33.00;26.75;;;;;3.41;64.70;100664.81;5077995;28;45505;-76
2022/12/12 04:27:05;;;;;;;;;29.25;25.75;;;;;3.46;64.24;100662.06;5077969;28;45401;-77
2022/12/12 04:29:39;;;;;;;;;27.00;25.00;;;;;3.48;63.54;100665.50;5076289;28;45461;-77
2022/12/12 04:32:28;;;;;;;;;38.00;32.50;;;;;3.42;64.15;100657.81;5076322;28;45480;-78
2022/12/12 04:35:02;;;;;;;;;27.25;24.25;;;;;3.42;64.49;100663.94;5076456;27;45449;-77
2022/12/12 04:37:33;;;;;;;;;35.50;31.75;;;;;3.44;64.71;100656.84;5076671;28;45361;-78
2022/12/12 04:40:02;;;;;;;;;25.00;24.25;;;;;3.51;64.36;100657.53;5077934;27;45236;-76
2022/12/12 04:42:37;;;;;;;;;31.75;27.50;;;;;3.56;64.84;100658.22;5077508;27;47270;-76
2022/12/12 04:45:26;;;;;;;;;32.00;27.00;;;;;3.60;63.37;100653.72;5077662;27;45410;-77
2022/12/12 04:47:55;;;;;;;;;25.00;24.00;;;;;3.64;63.93;100648.28;5077794;27;45465;-77
2022/12/12 04:50:24;;;;;;;;;32.00;27.75;;;;;3.59;64.24;100644.94;5077539;27;45319;-77
2022/12/12 04:52:52;;;;;;;;;27.25;25.50;;;;;3.43;63.49;100612.03;5077521;28;45764;-78
2022/12/12 04:55:41;;;;;;;;;28.25;23.00;;;;;3.63;63.95;100649.22;5076905;27;45468;-76
2022/12/12 04:58:07;;;;;;;;;33.75;27.00;;;;;3.66;63.60;100653.53;5070071;27;45247;-79
2022/12/12 05:00:44;;;;;;;;;32.25;27.00;;;;;3.57;63.48;100648.53;5077348;28;45869;-78
2022/12/12 05:03:28;;;;;;;;;32.75;29.00;;;;;3.44;63.84;100642.78;5075656;28;47116;-78
2022/12/12 05:05:58;;;;;;;;;30.00;22.50;;;;;3.60;64.34;100656.34;5077205;27;45427;-78
2022/12/12 05:08:47;;;;;;;;;28.75;24.75;;;;;3.65;64.27;100649.16;5077111;27;45375;-78
2022/12/12 05:11:14;;;;;;;;;35.75;31.00;;;;;3.61;64.32;100637.81;5076056;27;45467;-78
2022/12/12 05:13:41;;;;;;;;;26.25;23.50;;;;;3.59;63.88;100646.69;5076903;27;45466;-78
2022/12/12 05:16:25;;;;;;;;;27.50;21.75;;;;;3.59;64.02;100644.94;5077036;27;45505;-78
2022/12/12 05:18:50;;;;;;;;;29.50;28.25;;;;;3.60;63.74;100649.28;5077106;27;45502;-78
2022/12/12 05:21:16;;;;;;;;;24.00;19.75;;;;;3.48;63.62;100639.13;5076935;28;45474;-78
2022/12/12 05:23:42;;;;;;;;;30.50;28.50;;;;;3.58;64.34;100652.88;5075776;28;45412;-77
2022/12/12 05:26:09;;;;;;;;;29.75;27.75;;;;;3.56;64.46;100665.28;5076795;28;45714;-79
2022/12/12 05:28:35;;;;;;;;;27.50;23.50;;;;;3.55;64.14;100651.22;5076967;28;45353;-77
2022/12/12 05:31:01;;;;;;;;;27.25;23.00;;;;;3.57;64.83;100654.66;5076640;28;45568;-78
2022/12/12 05:33:26;;;;;;;;;29.75;27.00;;;;;3.66;64.80;100654.38;5076870;27;46233;-78
2022/12/12 05:35:52;;;;;;;;;31.25;26.25;;;;;3.33;63.86;100575.44;5076821;27;45514;-78
2022/12/12 05:38:17;;;;;;;;;25.25;24.75;;;;;3.56;63.58;100616.00;5075334;28;45352;-77
2022/12/12 05:40:42;;;;;;;;;31.25;25.00;;;;;3.79;64.37;100646.06;5076904;27;45448;-76
2022/12/12 05:43:08;;;;;;;;;34.00;31.75;;;;;3.75;63.64;100641.81;5076382;27;46036;-77
2022/12/12 05:45:33;;;;;;;;;40.50;29.00;;;;;3.40;63.76;100580.50;5076803;27;45214;-77
2022/12/12 05:47:59;;;;;;;;;35.75;29.00;;;;;3.14;64.27;100543.50;5076922;27;45389;-76
2022/12/12 05:50:24;;;;;;;;;35.75;28.75;;;;;3.84;63.39;100638.88;5076485;27;45737;-76
2022/12/12 05:52:49;;;;;;;;;27.75;22.75;;;;;3.90;64.32;100640.44;5076405;27;45589;-77
2022/12/12 05:55:15;;;;;;;;;29.00;25.25;;;;;3.86;64.03;100642.28;5075988;27;45422;-76
2022/12/12 05:57:40;;;;;;;;;28.50;25.50;;;;;3.66;63.57;100611.31;5075352;28;45356;-77
2022/12/12 06:00:06;;;;;;;;;30.50;26.75;;;;;3.79;63.70;100644.31;5075115;28;45466;-77
2022/12/12 06:02:32;;;;;;;;;30.00;28.75;;;;;3.57;63.49;100601.91;5074814;28;47124;-76
2022/12/12 06:04:57;;;;;;;;;29.75;26.25;;;;;3.68;63.66;100614.75;5075284;28;45385;-77
2022/12/12 06:07:23;;;;;;;;;33.25;27.25;;;;;3.78;63.67;100650.50;5075274;28;45406;-77
2022/12/12 06:09:48;;;;;;;;;33.75;28.25;;;;;3.79;63.70;100656.63;5072474;27;45429;-77
2022/12/12 06:12:13;;;;;;;;;28.50;24.50;;;;;3.80;64.62;100656.56;5076112;27;46269;-77
2022/12/12 06:14:39;;;;;;;;;29.25;26.25;;;;;3.70;63.97;100642.81;5076393;27;45297;-77
2022/12/12 06:17:04;;;;;;;;;29.00;27.00;;;;;3.80;63.58;100655.72;5076175;27;45816;-79
2022/12/12 06:19:29;;;;;;;;;29.50;28.00;;;;;3.14;63.70;100540.84;5076026;28;45288;-79
2022/12/12 06:21:55;;;;;;;;;35.00;31.50;;;;;3.70;64.16;100641.97;5075048;28;45919;-79
2022/12/12 06:24:20;;;;;;;;;32.00;25.25;;;;;3.18;64.00;100557.44;5064460;28;45392;-78
2022/12/12 06:26:45;;;;;;;;;30.50;27.50;;;;;3.75;63.86;100649.72;5055703;28;45294;-78
2022/12/12 06:29:13;;;;;;;;;24.25;24.00;;;;;3.73;63.91;100649.78;5054181;28;45565;-76
2022/12/12 06:31:39;;;;;;;;;34.25;32.00;;;;;3.10;64.48;100546.28;5068332;28;47101;-76
2022/12/12 06:34:04;;;;;;;;;33.75;29.75;;;;;3.69;64.16;100633.16;5071181;28;45350;-76
2022/12/12 06:36:30;;;;;;;;;30.50;27.50;;;;;3.77;64.60;100659.31;5076199;27;45592;-76
2022/12/12 06:38:58;;;;;;;;;34.00;29.50;;;;;3.72;63.75;100660.38;5075361;28;45509;-76
2022/12/12 06:41:27;;;;;;;;;28.00;26.00;;;;;3.73;63.92;100657.69;5076839;27;45413;-76
2022/12/12 06:43:52;;;;;;;;;29.75;27.25;;;;;3.59;64.58;100641.44;5074393;28;45441;-75
2022/12/12 06:46:23;;;;;;;;;27.75;25.50;;;;;3.51;63.83;100654.88;5075714;28;45310;-74
2022/12/12 06:48:49;;;;;;;;;36.00;31.00;;;;;3.49;64.48;100661.97;5074647;28;45278;-74
2022/12/12 06:51:21;;;;;;;;;38.00;30.50;;;;;3.45;64.92;100660.34;5073893;27;45303;-74
2022/12/12 06:53:47;;;;;;;;;29.25;28.50;;;;;2.95;65.32;100592.44;5074957;27;45388;-74
2022/12/12 06:56:16;;;;;;;;;31.25;27.50;;;;;2.68;64.94;100543.13;5075676;28;45392;-74
2022/12/12 06:58:43;;;;;;;;;32.50;30.50;;;;;3.40;64.47;100664.88;5074838;27;45484;-73
2022/12/12 07:01:11;;;;;;;;;30.25;28.25;;;;;2.95;65.71;100595.91;5075083;27;45493;-74
2022/12/12 07:03:36;;;;;;;;;35.50;31.25;;;;;2.69;65.32;100555.41;5075418;27;45489;-74
2022/12/12 07:06:02;;;;;;;;;29.75;28.50;;;;;3.24;65.60;100652.19;5075134;27;45762;-74
2022/12/12 07:08:28;;;;;;;;;33.00;23.75;;;;;3.29;64.95;100658.16;5075021;27;45555;-73
2022/12/12 07:10:54;;;;;;;;;32.75;25.75;;;;;3.13;64.54;100622.63;5075261;27;46126;-74
2022/12/12 07:13:20;;;;;;;;;7.00;2.00;;;;;2.99;65.68;100599.31;5075373;27;45306;-74
2022/12/12 07:15:47;;;;;;;;;39.00;34.75;;;;;2.66;65.37;100533.56;5074056;28;45357;-74
2022/12/12 07:18:13;;;;;;;;;40.25;37.00;;;;;3.38;65.52;100648.25;5075253;27;45274;-74
2022/12/12 07:20:40;;;;;;;;;50.25;40.25;;;;;3.37;64.86;100647.38;5075035;27;45490;-74
2022/12/12 07:23:06;;;;;;;;;43.50;38.50;;;;;3.41;65.44;100658.69;5075137;27;45525;-74
2022/12/12 07:25:32;;;;;;;;;33.50;32.25;;;;;3.30;64.55;100664.31;5073611;28;45407;-74
2022/12/12 07:27:57;;;;;;;;;32.25;27.25;;;;;2.83;64.81;100614.72;5074082;28;45466;-74
2022/12/12 07:30:22;;;;;;;;;43.25;31.50;;;;;3.13;65.74;100683.25;5074780;27;45402;-74
2022/12/12 07:32:50;;;;;;;;;30.00;29.00;;;;;3.17;65.26;100687.53;5075090;27;45449;-74
2022/12/12 07:35:15;;;;;;;;;34.75;32.50;;;;;3.11;64.60;100685.09;5074190;28;45764;-74
2022/12/12 07:37:40;;;;;;;;;38.75;32.50;;;;;3.10;65.37;100700.00;5075004;27;45358;-74
2022/12/12 07:40:06;;;;;;;;;35.75;33.75;;;;;2.80;65.13;100656.97;5075309;27;45358;-74
2022/12/12 07:42:32;;;;;;;;;39.25;32.50;;;;;3.00;65.55;100670.44;5074966;27;45480;-74
2022/12/12 07:44:57;;;;;;;;;38.75;34.75;;;;;3.12;65.25;100684.19;5075033;27;45473;-75
2022/12/12 07:47:22;;;;;;;;;34.25;29.75;;;;;3.07;65.78;100675.53;5075043;27;45471;-77
2022/12/12 07:49:48;;;;;;;;;33.50;30.00;;;;;2.65;65.02;100610.88;5074389;27;47364;-76
2022/12/12 07:52:13;;;;;;;;;39.00;32.25;;;;;3.06;65.25;100674.66;5073260;28;45387;-76
2022/12/12 07:54:39;;;;;;;;;34.75;27.25;;;;;3.16;65.79;100680.53;5074894;27;45322;-76
2022/12/12 07:57:04;;;;;;;;;28.50;22.75;;;;;3.10;65.03;100686.00;5074359;27;45310;-77
2022/12/12 07:59:29;;;;;;;;;35.50;34.00;;;;;3.08;64.78;100693.06;5074390;27;46088;-77
2022/12/12 08:01:55;;;;;;;;;32.00;31.00;;;;;2.69;65.09;100625.66;5074742;27;45357;-76
2022/12/12 08:04:20;;;;;;;;;33.75;29.25;;;;;3.18;65.15;100695.38;5073241;28;45371;-77
2022/12/12 08:06:45;;;;;;;;;35.25;34.25;;;;;3.20;65.14;100690.94;5074774;27;45375;-76
2022/12/12 08:09:11;;;;;;;;;41.50;38.25;;;;;2.86;64.88;100631.31;5074247;27;46186;-77
2022/12/12 08:11:38;;;;;;;;;37.75;30.25;;;;;3.18;64.67;100705.06;5074236;27;45377;-77
2022/12/12 08:14:05;;;;;;;;;37.25;32.75;;;;;3.11;65.00;100712.28;5073319;28;45311;-76
2022/12/12 08:16:31;;;;;;;;;38.50;35.25;;;;;2.86;65.00;100657.66;5074543;27;45301;-77
2022/12/12 08:18:57;;;;;;;;;39.75;38.50;;;;;2.38;64.19;100559.84;5074138;27;45371;-77
2022/12/12 08:21:24;;;;;;;;;43.00;37.50;;;;;3.28;64.44;100708.28;5074218;28;45362;-77
2022/12/12 08:23:49;;;;;;;;;40.50;36.50;;;;;2.94;64.67;100646.91;5074452;27;45429;-76
2022/12/12 08:26:17;;;;;;;;;33.50;25.25;;;;;3.33;64.01;100709.03;5074239;27;45364;-77
2022/12/12 08:28:44;;;;;;;;;28.75;26.75;;;;;3.27;63.91;100704.81;5074179;27;45835;-77
2022/12/12 08:31:12;;;;;;;;;35.75;34.00;;;;;3.30;64.40;100709.97;5074326;27;45366;-76
2022/12/12 08:33:37;;;;;;;;;38.50;35.50;;;;;2.94;64.52;100646.03;5073594;27;45275;-77
2022/12/12 08:36:17;;;;;;;;;41.00;33.00;;;;;3.27;63.79;100704.81;5074300;27;45515;-77
2022/12/12 08:38:43;;;;;;;;;31.75;26.25;;;;;3.08;64.64;100661.44;5074002;28;46396;-76
2022/12/12 08:41:09;;;;;;;;;42.00;37.25;;;;;3.28;64.80;100722.38;5074280;27;45404;-76
2022/12/12 08:43:35;;;;;;;;;45.50;35.00;;;;;3.29;64.86;100723.22;5074232;27;45439;-76
2022/12/12 08:46:02;;;;;;;;;36.75;34.25;;;;;3.35;64.50;100725.69;5075082;27;45290;-76
2022/12/12 08:48:29;;;;;;;;;32.50;31.75;;;;;3.50;63.81;100732.28;5076932;27;45429;-76
2022/12/12 08:50:55;;;;;;;;;41.75;35.50;;;;;3.47;64.56;100734.97;5077494;27;45472;-76
2022/12/12 08:53:21;;;;;;;;;36.50;35.00;;;;;3.21;63.82;100697.06;5077633;27;45348;-76
2022/12/12 08:55:46;;;;;;;;;40.00;34.75;;;;;2.39;63.32;100561.56;5077447;27;45302;-76
2022/12/12 08:58:11;;;;;;;;;35.00;30.00;;;;;3.56;64.30;100753.16;5077173;27;45370;-76
2022/12/12 09:00:37;;;;;;;;;40.25;35.75;;;;;3.61;63.05;100746.00;5076431;27;45430;-76
2022/12/12 09:03:02;;;;;;;;;44.25;39.25;;;;;3.62;64.06;100738.97;5077316;27;45376;-76
2022/12/12 09:05:28;;;;;;;;;49.25;41.75;;;;;3.58;63.38;100745.22;5077472;28;45547;-76
2022/12/12 09:07:53;;;;;;;;;43.75;36.00;;;;;2.94;62.81;100644.28;5077342;27;45435;-76
2022/12/12 09:10:19;;;;;;;;;45.75;38.50;;;;;3.58;63.02;100754.00;5076333;28;45402;-76
2022/12/12 09:12:44;;;;;;;;;51.00;39.00;;;;;3.64;64.01;100747.69;5077719;27;45410;-76
2022/12/12 09:15:10;;;;;;;;;36.75;28.25;;;;;3.43;63.91;100701.69;5078551;27;45299;-77
2022/12/12 09:17:35;;;;;;;;;58.50;46.00;;;;;3.66;63.21;100733.53;5077638;28;45985;-77
2022/12/12 09:20:00;;;;;;;;;47.25;40.00;;;;;3.61;63.53;100743.34;5078850;28;45367;-76
2022/12/12 09:22:26;;;;;;;;;45.75;39.75;;;;;3.66;63.35;100740.59;5079101;27;45232;-76
2022/12/12 09:24:51;;;;;;;;;41.00;38.50;;;;;3.33;63.40;100690.56;5077617;28;45264;-76
2022/12/12 09:27:17;;;;;;;;;49.00;41.75;;;;;3.70;63.44;100729.88;5075692;28;46160;-76
2022/12/12 09:29:42;;;;;;;;;42.25;36.00;;;;;3.91;63.28;100731.91;5076587;28;45368;-76
2022/12/12 09:32:08;;;;;;;;;41.75;36.50;;;;;3.95;62.62;100728.25;5076826;27;45338;-76
2022/12/12 09:34:33;;;;;;;;;47.50;39.75;;;;;3.92;62.61;100718.66;5076969;27;45318;-76
2022/12/12 09:37:00;;;;;;;;;51.50;41.25;;;;;4.03;62.69;100724.44;5076910;27;45706;-76
2022/12/12 09:39:25;;;;;;;;;46.75;37.00;;;;;4.09;62.32;100725.16;5076731;28;45355;-76
2022/12/12 09:41:50;;;;;;;;;51.25;43.00;;;;;4.15;62.47;100709.13;5077202;27;45350;-74
2022/12/12 09:44:19;;;;;;;;;50.75;39.50;;;;;4.09;61.48;100691.72;5076756;27;45493;-74
2022/12/12 09:46:56;;;;;;;;;49.50;42.50;;;;;4.18;61.15;100688.78;5076126;27;45354;-74
2022/12/12 09:49:24;;;;;;;;;41.75;37.75;;;;;4.54;61.05;100737.75;5076732;27;45467;-74
2022/12/12 09:51:50;;;;;;;;;46.00;40.00;;;;;4.19;61.45;100650.88;5076420;28;45483;-74
2022/12/12 09:54:19;;;;;;;;;34.25;34.25;;;;;4.69;60.00;100704.63;5076531;27;45373;-74
2022/12/12 09:57:02;;;;;;;;;41.75;36.75;;;;;4.89;59.55;100722.44;5075965;28;46059;-74
2022/12/12 09:59:56;;;;;;;;;40.25;37.00;;;;;5.07;60.43;100727.97;5074397;28;45380;-74
2022/12/12 10:02:59;;;;;;;;;43.00;37.25;;;;;5.03;58.39;100722.81;5076125;27;45417;-73
2022/12/12 10:05:34;;;;;;;;;40.50;36.00;;;;;5.04;59.39;100726.31;5076294;28;45385;-73
2022/12/12 10:08:17;;;;;;;;;47.75;41.25;;;;;5.12;59.38;100729.53;5075978;27;45538;-74
2022/12/12 10:10:47;;;;;;;;;43.25;37.75;;;;;5.15;58.62;100723.25;5075788;28;45306;-74
2022/12/12 10:13:23;;;;;;;;;38.00;34.25;;;;;4.57;58.65;100658.38;5076154;28;45442;-74
2022/12/12 10:15:53;;;;;;;;;50.50;41.25;;;;;4.49;57.96;100618.16;5075924;27;45360;-74
2022/12/12 10:18:31;;;;;;;;;38.00;36.50;;;;;4.91;58.28;100703.88;5075693;27;45463;-74
2022/12/12 10:21:00;;;;;;;;;41.25;36.50;;;;;4.85;58.37;100660.03;5075818;27;45319;-74
2022/12/12 10:23:47;;;;;;;;;45.25;38.50;;;;;4.61;57.80;100694.34;5076045;28;45346;-74
2022/12/12 10:26:29;;;;;;;;;44.75;34.25;;;;;4.50;58.83;100693.84;5076252;28;45340;-74
2022/12/12 10:28:59;;;;;;;;;30.00;27.75;;;;;4.84;57.82;100703.22;5075865;28;45517;-74
2022/12/12 10:31:50;;;;;;;;;34.25;30.00;;;;;4.64;58.10;100698.66;5074554;28;45438;-73
2022/12/12 10:34:34;;;;;;;;;40.50;33.25;;;;;4.55;57.82;100697.22;5076275;27;45370;-74
2022/12/12 10:37:37;;;;;;;;;41.50;34.75;;;;;4.00;59.44;100697.28;5076089;27;45399;-74
2022/12/12 10:40:16;;;;;;;;;46.50;38.75;;;;;4.29;58.96;100698.09;5075761;28;45379;-75
2022/12/12 10:42:52;;;;;;;;;42.75;36.75;;;;;4.35;59.42;100709.31;5075601;27;45297;-75
2022/12/12 10:45:55;;;;;;;;;42.50;39.75;;;;;4.78;58.43;100714.00;5075037;27;45390;-75
2022/12/12 10:48:20;;;;;;;;;43.00;38.00;;;;;5.03;58.44;100704.28;5075731;27;45393;-75
2022/12/12 10:50:54;;;;;;;;;43.00;40.25;;;;;5.23;57.68;100700.88;5075830;27;45619;-75
2022/12/12 10:53:21;;;;;;;;;46.75;41.50;;;;;5.13;57.88;100656.31;5075460;27;45313;-75
2022/12/12 10:55:50;;;;;;;;;55.75;43.25;;;;;5.45;57.41;100686.81;5075618;27;45334;-75
2022/12/12 10:58:17;;;;;;;;;52.50;40.50;;;;;4.75;57.25;100555.56;5075649;27;45436;-74
2022/12/12 11:00:44;;;;;;;;;45.75;39.00;;;;;5.78;56.56;100685.59;5075948;27;46009;-75
2022/12/12 11:03:26;;;;;;;;;42.25;37.00;;;;;5.90;56.14;100661.25;5075102;27;45376;-75
2022/12/12 11:05:54;;;;;;;;;47.50;38.00;;;;;6.27;54.92;100680.91;5075131;28;45397;-75
2022/12/12 11:08:34;;;;;;;;;36.75;30.25;;;;;6.45;53.72;100673.13;5073938;27;45658;-75
2022/12/12 11:11:18;;;;;;;;;48.00;37.75;;;;;6.51;53.09;100673.72;5073917;27;47411;-75
2022/12/12 11:13:48;;;;;;;;;43.50;38.50;;;;;6.69;53.26;100658.81;5072787;28;45396;-75
2022/12/12 11:16:17;;;;;;;;;48.75;37.75;;;;;6.83;52.66;100644.94;5072098;28;45392;-75
2022/12/12 11:18:58;;;;;;;;;43.25;37.50;;;;;7.13;52.59;100646.25;5074235;27;45542;-75
2022/12/12 11:21:24;;;;;;;;;50.75;37.25;;;;;7.23;51.05;100635.13;5073178;28;45682;-75
2022/12/12 11:23:54;;;;;;;;;40.75;33.00;;;;;7.26;52.52;100634.13;5071216;28;45389;-76
2022/12/12 11:26:21;;;;;;;;;44.00;36.25;;;;;7.57;51.44;100620.25;5074119;27;45599;-76
2022/12/12 11:28:55;;;;;;;;;36.50;30.00;;;;;7.71;51.11;100611.59;5073557;27;45481;-76
2022/12/12 11:31:24;;;;;;;;;38.50;36.25;;;;;7.63;50.95;100558.00;5074725;28;45530;-76
2022/12/12 11:33:56;;;;;;;;;45.00;33.50;;;;;7.99;50.20;100591.63;5074920;27;45247;-76
2022/12/12 11:36:35;;;;;;;;;42.00;33.25;;;;;7.70;48.91;100577.16;5073624;28;45373;-76
2022/12/12 11:39:11;;;;;;;;;43.50;33.75;;;;;7.97;48.50;100595.28;5075077;27;45484;-76
2022/12/12 11:42:14;;;;;;;;;40.00;34.75;;;;;7.95;49.92;100587.41;5074676;27;46234;-76
2022/12/12 11:44:42;;;;;;;;;46.50;36.75;;;;;8.30;49.02;100600.69;5075097;28;45247;-76